sensor_id;sensor_type;location;lat;lon;timestamp;P1;durP1;ratioP1;P2;durP2;ratioP2
35048;SDS011;21236;48.740;-3.446;2022-07-22T00:01:33;6.82;;;3.22;;
35048;SDS011;21236;48.740;-3.446;2022-07-22T00:03:59;6.40;;;4.28;;
35048;SDS011;21236;48.740;-3.446;2022-07-22T00:06:27;5.57;;;3.85;;
35048;SDS011;21236;48.740;-3.446;2022-07-22T00:08:53;6.32;;;3.97;;
35048;SDS011;21236;48.740;-3.446;2022-07-22T00:11:19;7.60;;;4.03;;
35048;SDS011;21236;48.740;-3.446;2022-07-22T00:13:46;10.55;;;4.28;;
35048;SDS011;21236;48.740;-3.446;2022-07-22T00:16:12;7.63;;;4.38;;
35048;SDS011;21236;48.740;-3.446;2022-07-22T00:18:38;4.20;;;3.20;;
35048;SDS011;21236;48.740;-3.446;2022-07-22T00:21:04;5.88;;;3.35;;
35048;SDS011;21236;48.740;-3.446;2022-07-22T00:23:30;7.47;;;3.47;;
35048;SDS011;21236;48.740;-3.446;2022-07-22T00:25:56;6.57;;;3.53;;
35048;SDS011;21236;48.740;-3.446;2022-07-22T00:28:22;4.38;;;3.47;;
35048;SDS011;21236;48.740;-3.446;2022-07-22T00:30:49;8.25;;;3.80;;
35048;SDS011;21236;48.740;-3.446;2022-07-22T00:33:15;5.53;;;3.80;;
35048;SDS011;21236;48.740;-3.446;2022-07-22T00:35:41;5.57;;;3.88;;
35048;SDS011;21236;48.740;-3.446;2022-07-22T00:38:07;9.93;;;4.32;;
35048;SDS011;21236;48.740;-3.446;2022-07-22T00:40:34;7.50;;;4.45;;
35048;SDS011;21236;48.740;-3.446;2022-07-22T00:43:00;5.90;;;3.78;;
35048;SDS011;21236;48.740;-3.446;2022-07-22T00:45:26;5.57;;;3.90;;
35048;SDS011;21236;48.740;-3.446;2022-07-22T00:47:53;6.38;;;3.58;;
35048;SDS011;21236;48.740;-3.446;2022-07-22T00:50:19;4.90;;;4.07;;
35048;SDS011;21236;48.740;-3.446;2022-07-22T00:52:46;6.15;;;3.70;;
35048;SDS011;21236;48.740;-3.446;2022-07-22T00:55:13;5.38;;;3.88;;
35048;SDS011;21236;48.740;-3.446;2022-07-22T00:57:39;4.68;;;3.70;;
35048;SDS011;21236;48.740;-3.446;2022-07-22T01:00:06;7.18;;;4.10;;
35048;SDS011;21236;48.740;-3.446;2022-07-22T01:02:33;5.80;;;3.60;;
35048;SDS011;21236;48.740;-3.446;2022-07-22T01:04:59;6.20;;;3.45;;
35048;SDS011;21236;48.740;-3.446;2022-07-22T01:07:26;5.53;;;3.88;;
35048;SDS011;21236;48.740;-3.446;2022-07-22T01:09:52;8.07;;;4.13;;
35048;SDS011;21236;48.740;-3.446;2022-07-22T01:12:18;7.63;;;3.75;;
35048;SDS011;21236;48.740;-3.446;2022-07-22T01:14:44;8.02;;;4.63;;
35048;SDS011;21236;48.740;-3.446;2022-07-22T01:17:10;9.38;;;4.13;;
35048;SDS011;21236;48.740;-3.446;2022-07-22T01:19:36;6.00;;;3.90;;
35048;SDS011;21236;48.740;-3.446;2022-07-22T01:22:04;8.27;;;4.50;;
35048;SDS011;21236;48.740;-3.446;2022-07-22T01:24:30;5.60;;;3.88;;
35048;SDS011;21236;48.740;-3.446;2022-07-22T01:26:56;4.43;;;3.58;;
35048;SDS011;21236;48.740;-3.446;2022-07-22T01:29:23;4.90;;;3.78;;
35048;SDS011;21236;48.740;-3.446;2022-07-22T01:31:49;4.72;;;3.90;;
35048;SDS011;21236;48.740;-3.446;2022-07-22T01:34:15;6.85;;;4.10;;
35048;SDS011;21236;48.740;-3.446;2022-07-22T01:36:41;4.38;;;3.65;;
35048;SDS011;21236;48.740;-3.446;2022-07-22T01:39:07;5.95;;;4.50;;
35048;SDS011;21236;48.740;-3.446;2022-07-22T01:41:34;7.53;;;4.97;;
35048;SDS011;21236;48.740;-3.446;2022-07-22T01:44:01;8.60;;;4.28;;
35048;SDS011;21236;48.740;-3.446;2022-07-22T01:46:27;7.75;;;4.00;;
35048;SDS011;21236;48.740;-3.446;2022-07-22T01:48:53;5.95;;;4.20;;
35048;SDS011;21236;48.740;-3.446;2022-07-22T01:51:20;5.75;;;3.80;;
35048;SDS011;21236;48.740;-3.446;2022-07-22T01:53:47;6.80;;;3.95;;
35048;SDS011;21236;48.740;-3.446;2022-07-22T01:56:14;7.50;;;4.40;;
35048;SDS011;21236;48.740;-3.446;2022-07-22T01:58:47;5.43;;;3.75;;
35048;SDS011;21236;48.740;-3.446;2022-07-22T02:01:15;5.90;;;4.30;;
35048;SDS011;21236;48.740;-3.446;2022-07-22T02:03:41;6.65;;;4.03;;
35048;SDS011;21236;48.740;-3.446;2022-07-22T02:06:08;7.95;;;4.32;;
35048;SDS011;21236;48.740;-3.446;2022-07-22T02:08:34;5.50;;;4.20;;
35048;SDS011;21236;48.740;-3.446;2022-07-22T02:11:12;9.60;;;4.30;;
35048;SDS011;21236;48.740;-3.446;2022-07-22T02:13:51;6.88;;;3.90;;
35048;SDS011;21236;48.740;-3.446;2022-07-22T02:16:17;7.35;;;4.13;;
35048;SDS011;21236;48.740;-3.446;2022-07-22T02:18:43;7.03;;;4.07;;
35048;SDS011;21236;48.740;-3.446;2022-07-22T02:21:10;6.47;;;3.97;;
35048;SDS011;21236;48.740;-3.446;2022-07-22T02:23:36;6.85;;;3.70;;
35048;SDS011;21236;48.740;-3.446;2022-07-22T02:26:03;5.75;;;4.20;;
35048;SDS011;21236;48.740;-3.446;2022-07-22T02:28:29;7.68;;;3.92;;
35048;SDS011;21236;48.740;-3.446;2022-07-22T02:30:55;5.65;;;3.80;;
35048;SDS011;21236;48.740;-3.446;2022-07-22T02:33:21;5.45;;;3.53;;
35048;SDS011;21236;48.740;-3.446;2022-07-22T02:35:48;9.00;;;4.15;;
35048;SDS011;21236;48.740;-3.446;2022-07-22T02:38:14;7.85;;;4.20;;
35048;SDS011;21236;48.740;-3.446;2022-07-22T02:40:41;7.10;;;3.88;;
35048;SDS011;21236;48.740;-3.446;2022-07-22T02:43:10;8.60;;;4.90;;
35048;SDS011;21236;48.740;-3.446;2022-07-22T02:45:36;6.55;;;3.45;;
35048;SDS011;21236;48.740;-3.446;2022-07-22T02:48:02;4.28;;;3.55;;
35048;SDS011;21236;48.740;-3.446;2022-07-22T02:50:32;7.25;;;3.92;;
35048;SDS011;21236;48.740;-3.446;2022-07-22T02:52:58;7.15;;;4.25;;
35048;SDS011;21236;48.740;-3.446;2022-07-22T02:55:29;7.72;;;4.45;;
35048;SDS011;21236;48.740;-3.446;2022-07-22T02:58:00;7.03;;;3.72;;
35048;SDS011;21236;48.740;-3.446;2022-07-22T03:00:29;7.35;;;5.00;;
35048;SDS011;21236;48.740;-3.446;2022-07-22T03:02:55;6.60;;;4.15;;
35048;SDS011;21236;48.740;-3.446;2022-07-22T03:05:21;5.90;;;3.75;;
35048;SDS011;21236;48.740;-3.446;2022-07-22T03:07:52;8.98;;;4.35;;
35048;SDS011;21236;48.740;-3.446;2022-07-22T03:10:19;5.47;;;3.50;;
35048;SDS011;21236;48.740;-3.446;2022-07-22T03:12:45;6.95;;;3.95;;
35048;SDS011;21236;48.740;-3.446;2022-07-22T03:15:12;10.63;;;4.63;;
35048;SDS011;21236;48.740;-3.446;2022-07-22T03:17:38;6.15;;;4.53;;
35048;SDS011;21236;48.740;-3.446;2022-07-22T03:20:06;5.28;;;4.25;;
35048;SDS011;21236;48.740;-3.446;2022-07-22T03:22:33;7.82;;;3.83;;
35048;SDS011;21236;48.740;-3.446;2022-07-22T03:24:59;4.47;;;3.58;;
35048;SDS011;21236;48.740;-3.446;2022-07-22T03:27:25;5.68;;;3.95;;
35048;SDS011;21236;48.740;-3.446;2022-07-22T03:29:52;6.75;;;3.78;;
35048;SDS011;21236;48.740;-3.446;2022-07-22T03:32:18;4.03;;;3.13;;
35048;SDS011;21236;48.740;-3.446;2022-07-22T03:34:47;4.97;;;3.95;;
35048;SDS011;21236;48.740;-3.446;2022-07-22T03:37:13;5.47;;;3.63;;
35048;SDS011;21236;48.740;-3.446;2022-07-22T03:39:41;6.10;;;4.22;;
35048;SDS011;21236;48.740;-3.446;2022-07-22T03:42:09;6.15;;;3.55;;
35048;SDS011;21236;48.740;-3.446;2022-07-22T03:44:43;5.97;;;4.25;;
35048;SDS011;21236;48.740;-3.446;2022-07-22T03:47:09;5.28;;;4.22;;
35048;SDS011;21236;48.740;-3.446;2022-07-22T03:49:35;6.90;;;3.88;;
35048;SDS011;21236;48.740;-3.446;2022-07-22T03:52:04;6.15;;;4.03;;
35048;SDS011;21236;48.740;-3.446;2022-07-22T03:54:30;5.30;;;3.83;;
35048;SDS011;21236;48.740;-3.446;2022-07-22T03:56:56;8.15;;;3.90;;
35048;SDS011;21236;48.740;-3.446;2022-07-22T03:59:22;6.60;;;3.80;;
35048;SDS011;21236;48.740;-3.446;2022-07-22T04:01:48;6.40;;;4.20;;
35048;SDS011;21236;48.740;-3.446;2022-07-22T04:04:14;8.23;;;4.18;;
35048;SDS011;21236;48.740;-3.446;2022-07-22T04:06:43;6.68;;;3.88;;
35048;SDS011;21236;48.740;-3.446;2022-07-22T04:09:17;8.30;;;3.58;;
35048;SDS011;21236;48.740;-3.446;2022-07-22T04:11:44;8.18;;;3.92;;
35048;SDS011;21236;48.740;-3.446;2022-07-22T04:14:10;6.88;;;3.75;;
35048;SDS011;21236;48.740;-3.446;2022-07-22T04:16:36;5.22;;;3.40;;
35048;SDS011;21236;48.740;-3.446;2022-07-22T04:19:07;6.03;;;3.72;;
35048;SDS011;21236;48.740;-3.446;2022-07-22T04:21:51;9.20;;;3.88;;
35048;SDS011;21236;48.740;-3.446;2022-07-22T04:24:19;4.97;;;3.45;;
35048;SDS011;21236;48.740;-3.446;2022-07-22T04:26:47;7.63;;;3.30;;
35048;SDS011;21236;48.740;-3.446;2022-07-22T04:29:13;10.55;;;4.15;;
35048;SDS011;21236;48.740;-3.446;2022-07-22T04:31:40;5.85;;;2.92;;
35048;SDS011;21236;48.740;-3.446;2022-07-22T04:34:12;13.00;;;3.80;;
35048;SDS011;21236;48.740;-3.446;2022-07-22T04:36:38;10.40;;;3.53;;
35048;SDS011;21236;48.740;-3.446;2022-07-22T04:39:04;8.63;;;3.58;;
35048;SDS011;21236;48.740;-3.446;2022-07-22T04:41:31;15.00;;;5.43;;
35048;SDS011;21236;48.740;-3.446;2022-07-22T04:43:58;8.63;;;3.00;;
35048;SDS011;21236;48.740;-3.446;2022-07-22T04:46:27;11.10;;;3.38;;
35048;SDS011;21236;48.740;-3.446;2022-07-22T04:48:55;14.00;;;3.65;;
35048;SDS011;21236;48.740;-3.446;2022-07-22T04:51:21;12.88;;;3.20;;
35048;SDS011;21236;48.740;-3.446;2022-07-22T04:53:55;13.27;;;3.67;;
35048;SDS011;21236;48.740;-3.446;2022-07-22T04:56:22;10.50;;;3.47;;
35048;SDS011;21236;48.740;-3.446;2022-07-22T04:58:49;12.20;;;3.13;;
35048;SDS011;21236;48.740;-3.446;2022-07-22T05:01:16;12.43;;;3.38;;
35048;SDS011;21236;48.740;-3.446;2022-07-22T05:03:47;12.57;;;3.60;;
35048;SDS011;21236;48.740;-3.446;2022-07-22T05:06:14;18.95;;;4.40;;
35048;SDS011;21236;48.740;-3.446;2022-07-22T05:08:42;13.35;;;4.20;;
35048;SDS011;21236;48.740;-3.446;2022-07-22T05:11:09;7.35;;;3.00;;
35048;SDS011;21236;48.740;-3.446;2022-07-22T05:13:35;12.32;;;3.50;;
35048;SDS011;21236;48.740;-3.446;2022-07-22T05:16:02;8.20;;;3.03;;
35048;SDS011;21236;48.740;-3.446;2022-07-22T05:18:30;12.73;;;3.88;;
35048;SDS011;21236;48.740;-3.446;2022-07-22T05:20:57;10.00;;;3.13;;
35048;SDS011;21236;48.740;-3.446;2022-07-22T05:23:23;8.80;;;3.63;;
35048;SDS011;21236;48.740;-3.446;2022-07-22T05:25:49;11.65;;;3.55;;
35048;SDS011;21236;48.740;-3.446;2022-07-22T05:28:17;15.43;;;3.35;;
35048;SDS011;21236;48.740;-3.446;2022-07-22T05:30:46;16.23;;;3.75;;
35048;SDS011;21236;48.740;-3.446;2022-07-22T05:33:13;9.20;;;2.88;;
35048;SDS011;21236;48.740;-3.446;2022-07-22T05:36:17;8.75;;;2.95;;
35048;SDS011;21236;48.740;-3.446;2022-07-22T05:38:46;7.50;;;3.35;;
35048;SDS011;21236;48.740;-3.446;2022-07-22T05:41:13;13.80;;;3.35;;
35048;SDS011;21236;48.740;-3.446;2022-07-22T05:43:40;15.70;;;3.25;;
35048;SDS011;21236;48.740;-3.446;2022-07-22T05:46:07;13.13;;;3.50;;
35048;SDS011;21236;48.740;-3.446;2022-07-22T05:48:33;13.27;;;4.78;;
35048;SDS011;21236;48.740;-3.446;2022-07-22T05:51:01;16.85;;;3.42;;
35048;SDS011;21236;48.740;-3.446;2022-07-22T05:53:29;14.98;;;3.17;;
35048;SDS011;21236;48.740;-3.446;2022-07-22T05:55:56;11.38;;;3.03;;
35048;SDS011;21236;48.740;-3.446;2022-07-22T05:58:22;15.77;;;3.63;;
35048;SDS011;21236;48.740;-3.446;2022-07-22T06:00:49;14.95;;;2.88;;
35048;SDS011;21236;48.740;-3.446;2022-07-22T06:03:15;10.23;;;3.28;;
35048;SDS011;21236;48.740;-3.446;2022-07-22T06:05:41;13.18;;;3.53;;
35048;SDS011;21236;48.740;-3.446;2022-07-22T06:08:10;15.63;;;3.28;;
35048;SDS011;21236;48.740;-3.446;2022-07-22T06:10:45;15.32;;;3.65;;
35048;SDS011;21236;48.740;-3.446;2022-07-22T06:13:12;12.85;;;3.58;;
35048;SDS011;21236;48.740;-3.446;2022-07-22T06:15:40;12.57;;;3.60;;
35048;SDS011;21236;48.740;-3.446;2022-07-22T06:18:06;14.85;;;3.20;;
35048;SDS011;21236;48.740;-3.446;2022-07-22T06:20:32;12.10;;;3.58;;
35048;SDS011;21236;48.740;-3.446;2022-07-22T06:22:58;15.05;;;4.00;;
35048;SDS011;21236;48.740;-3.446;2022-07-22T06:25:25;12.57;;;2.95;;
35048;SDS011;21236;48.740;-3.446;2022-07-22T06:27:52;17.15;;;3.45;;
35048;SDS011;21236;48.740;-3.446;2022-07-22T06:30:18;10.07;;;3.40;;
35048;SDS011;21236;48.740;-3.446;2022-07-22T06:32:45;8.95;;;2.72;;
35048;SDS011;21236;48.740;-3.446;2022-07-22T06:35:12;13.25;;;3.55;;
35048;SDS011;21236;48.740;-3.446;2022-07-22T06:37:38;10.55;;;3.38;;
35048;SDS011;21236;48.740;-3.446;2022-07-22T06:40:04;11.70;;;2.75;;
35048;SDS011;21236;48.740;-3.446;2022-07-22T06:42:50;13.73;;;3.28;;
35048;SDS011;21236;48.740;-3.446;2022-07-22T06:45:33;12.32;;;4.07;;
35048;SDS011;21236;48.740;-3.446;2022-07-22T06:48:09;8.82;;;2.78;;
35048;SDS011;21236;48.740;-3.446;2022-07-22T06:50:35;11.50;;;2.85;;
35048;SDS011;21236;48.740;-3.446;2022-07-22T06:55:34;10.50;;;2.78;;
35048;SDS011;21236;48.740;-3.446;2022-07-22T06:58:07;6.82;;;2.88;;
35048;SDS011;21236;48.740;-3.446;2022-07-22T07:00:34;10.55;;;2.78;;
35048;SDS011;21236;48.740;-3.446;2022-07-22T07:03:21;10.13;;;3.10;;
35048;SDS011;21236;48.740;-3.446;2022-07-22T07:05:49;9.88;;;3.25;;
35048;SDS011;21236;48.740;-3.446;2022-07-22T07:08:16;12.60;;;3.60;;
35048;SDS011;21236;48.740;-3.446;2022-07-22T07:10:42;11.15;;;3.00;;
35048;SDS011;21236;48.740;-3.446;2022-07-22T07:13:12;10.13;;;3.30;;
35048;SDS011;21236;48.740;-3.446;2022-07-22T07:15:42;10.27;;;2.40;;
35048;SDS011;21236;48.740;-3.446;2022-07-22T07:18:09;7.78;;;2.78;;
35048;SDS011;21236;48.740;-3.446;2022-07-22T07:20:36;10.95;;;2.78;;
35048;SDS011;21236;48.740;-3.446;2022-07-22T07:23:05;10.13;;;2.53;;
35048;SDS011;21236;48.740;-3.446;2022-07-22T07:25:39;22.45;;;3.70;;
35048;SDS011;21236;48.740;-3.446;2022-07-22T07:28:05;12.13;;;3.30;;
35048;SDS011;21236;48.740;-3.446;2022-07-22T07:30:52;13.02;;;3.10;;
35048;SDS011;21236;48.740;-3.446;2022-07-22T07:33:19;18.75;;;3.47;;
35048;SDS011;21236;48.740;-3.446;2022-07-22T07:35:46;11.75;;;2.25;;
35048;SDS011;21236;48.740;-3.446;2022-07-22T07:38:16;9.02;;;2.90;;
35048;SDS011;21236;48.740;-3.446;2022-07-22T07:40:42;8.40;;;2.95;;
35048;SDS011;21236;48.740;-3.446;2022-07-22T07:43:10;8.65;;;2.88;;
35048;SDS011;21236;48.740;-3.446;2022-07-22T07:45:36;18.80;;;3.92;;
35048;SDS011;21236;48.740;-3.446;2022-07-22T07:48:03;16.25;;;4.28;;
35048;SDS011;21236;48.740;-3.446;2022-07-22T07:50:30;9.70;;;3.40;;
35048;SDS011;21236;48.740;-3.446;2022-07-22T07:52:57;9.85;;;3.60;;
35048;SDS011;21236;48.740;-3.446;2022-07-22T07:55:25;16.98;;;3.28;;
35048;SDS011;21236;48.740;-3.446;2022-07-22T07:57:51;15.70;;;3.13;;
35048;SDS011;21236;48.740;-3.446;2022-07-22T08:00:20;24.88;;;5.38;;
35048;SDS011;21236;48.740;-3.446;2022-07-22T08:02:47;16.02;;;3.80;;
35048;SDS011;21236;48.740;-3.446;2022-07-22T08:05:14;7.93;;;3.47;;
35048;SDS011;21236;48.740;-3.446;2022-07-22T08:07:40;13.75;;;3.85;;
35048;SDS011;21236;48.740;-3.446;2022-07-22T08:10:08;9.75;;;3.50;;
35048;SDS011;21236;48.740;-3.446;2022-07-22T08:13:04;10.75;;;3.35;;
35048;SDS011;21236;48.740;-3.446;2022-07-22T08:15:40;10.57;;;3.50;;
35048;SDS011;21236;48.740;-3.446;2022-07-22T08:18:19;14.43;;;3.90;;
35048;SDS011;21236;48.740;-3.446;2022-07-22T08:20:46;9.23;;;3.45;;
35048;SDS011;21236;48.740;-3.446;2022-07-22T08:23:12;15.10;;;4.00;;
35048;SDS011;21236;48.740;-3.446;2022-07-22T08:25:42;13.52;;;4.28;;
35048;SDS011;21236;48.740;-3.446;2022-07-22T08:28:09;10.00;;;3.53;;
35048;SDS011;21236;48.740;-3.446;2022-07-22T08:30:35;15.43;;;3.95;;
35048;SDS011;21236;48.740;-3.446;2022-07-22T08:33:01;18.38;;;4.00;;
35048;SDS011;21236;48.740;-3.446;2022-07-22T08:35:28;14.30;;;3.63;;
35048;SDS011;21236;48.740;-3.446;2022-07-22T08:37:54;11.93;;;4.57;;
35048;SDS011;21236;48.740;-3.446;2022-07-22T08:40:22;15.32;;;4.25;;
35048;SDS011;21236;48.740;-3.446;2022-07-22T08:42:48;10.18;;;3.67;;
35048;SDS011;21236;48.740;-3.446;2022-07-22T08:45:16;15.07;;;4.38;;
35048;SDS011;21236;48.740;-3.446;2022-07-22T08:47:43;16.85;;;4.13;;
35048;SDS011;21236;48.740;-3.446;2022-07-22T08:50:18;13.68;;;3.90;;
35048;SDS011;21236;48.740;-3.446;2022-07-22T08:55:26;13.68;;;3.70;;
35048;SDS011;21236;48.740;-3.446;2022-07-22T08:57:52;10.35;;;4.25;;
35048;SDS011;21236;48.740;-3.446;2022-07-22T09:00:19;12.40;;;3.95;;
35048;SDS011;21236;48.740;-3.446;2022-07-22T09:02:46;18.52;;;4.05;;
35048;SDS011;21236;48.740;-3.446;2022-07-22T09:05:14;11.55;;;3.83;;
35048;SDS011;21236;48.740;-3.446;2022-07-22T09:07:42;13.75;;;3.55;;
35048;SDS011;21236;48.740;-3.446;2022-07-22T09:10:21;10.63;;;3.97;;
35048;SDS011;21236;48.740;-3.446;2022-07-22T09:13:10;11.52;;;3.85;;
35048;SDS011;21236;48.740;-3.446;2022-07-22T09:16:05;10.65;;;3.78;;
35048;SDS011;21236;48.740;-3.446;2022-07-22T09:18:52;14.67;;;4.60;;
35048;SDS011;21236;48.740;-3.446;2022-07-22T09:21:43;10.27;;;3.97;;
35048;SDS011;21236;48.740;-3.446;2022-07-22T09:24:26;15.07;;;3.30;;
35048;SDS011;21236;48.740;-3.446;2022-07-22T09:26:54;13.02;;;3.42;;
35048;SDS011;21236;48.740;-3.446;2022-07-22T09:29:34;10.60;;;3.90;;
35048;SDS011;21236;48.740;-3.446;2022-07-22T09:32:36;10.52;;;3.97;;
35048;SDS011;21236;48.740;-3.446;2022-07-22T09:35:18;8.88;;;2.97;;
35048;SDS011;21236;48.740;-3.446;2022-07-22T09:40:18;6.47;;;3.10;;
35048;SDS011;21236;48.740;-3.446;2022-07-22T09:42:45;10.93;;;3.03;;
35048;SDS011;21236;48.740;-3.446;2022-07-22T09:45:11;10.00;;;3.22;;
35048;SDS011;21236;48.740;-3.446;2022-07-22T09:47:43;6.32;;;2.42;;
35048;SDS011;21236;48.740;-3.446;2022-07-22T09:50:29;8.63;;;2.67;;
35048;SDS011;21236;48.740;-3.446;2022-07-22T09:53:15;10.60;;;2.85;;
35048;SDS011;21236;48.740;-3.446;2022-07-22T09:58:13;6.75;;;2.50;;
35048;SDS011;21236;48.740;-3.446;2022-07-22T10:00:40;11.75;;;3.05;;
35048;SDS011;21236;48.740;-3.446;2022-07-22T10:03:08;5.95;;;2.50;;
35048;SDS011;21236;48.740;-3.446;2022-07-22T10:05:36;7.50;;;2.00;;
35048;SDS011;21236;48.740;-3.446;2022-07-22T10:08:04;7.65;;;2.80;;
35048;SDS011;21236;48.740;-3.446;2022-07-22T10:10:33;8.55;;;2.28;;
35048;SDS011;21236;48.740;-3.446;2022-07-22T10:13:00;9.00;;;2.63;;
35048;SDS011;21236;48.740;-3.446;2022-07-22T10:15:27;8.57;;;2.67;;
35048;SDS011;21236;48.740;-3.446;2022-07-22T10:17:55;6.95;;;2.70;;
35048;SDS011;21236;48.740;-3.446;2022-07-22T10:20:26;12.60;;;3.00;;
35048;SDS011;21236;48.740;-3.446;2022-07-22T10:22:53;5.60;;;2.83;;
35048;SDS011;21236;48.740;-3.446;2022-07-22T10:25:21;6.25;;;2.65;;
35048;SDS011;21236;48.740;-3.446;2022-07-22T10:27:50;13.75;;;2.50;;
35048;SDS011;21236;48.740;-3.446;2022-07-22T10:30:18;9.40;;;2.72;;
35048;SDS011;21236;48.740;-3.446;2022-07-22T10:32:44;14.48;;;2.63;;
35048;SDS011;21236;48.740;-3.446;2022-07-22T10:37:37;9.68;;;2.90;;
35048;SDS011;21236;48.740;-3.446;2022-07-22T10:40:16;7.03;;;2.75;;
35048;SDS011;21236;48.740;-3.446;2022-07-22T10:45:24;6.53;;;2.47;;
35048;SDS011;21236;48.740;-3.446;2022-07-22T10:47:54;9.38;;;2.45;;
35048;SDS011;21236;48.740;-3.446;2022-07-22T10:53:09;9.13;;;2.50;;
35048;SDS011;21236;48.740;-3.446;2022-07-22T10:55:35;6.35;;;2.30;;
35048;SDS011;21236;48.740;-3.446;2022-07-22T11:00:46;5.63;;;2.17;;
35048;SDS011;21236;48.740;-3.446;2022-07-22T11:03:23;8.20;;;2.20;;
35048;SDS011;21236;48.740;-3.446;2022-07-22T11:05:50;6.93;;;2.40;;
35048;SDS011;21236;48.740;-3.446;2022-07-22T11:08:16;16.98;;;2.88;;
35048;SDS011;21236;48.740;-3.446;2022-07-22T11:10:47;9.90;;;2.20;;
35048;SDS011;21236;48.740;-3.446;2022-07-22T11:13:29;8.88;;;1.95;;
35048;SDS011;21236;48.740;-3.446;2022-07-22T11:15:56;6.60;;;1.90;;
35048;SDS011;21236;48.740;-3.446;2022-07-22T11:18:22;6.97;;;2.05;;
35048;SDS011;21236;48.740;-3.446;2022-07-22T11:20:48;11.52;;;2.40;;
35048;SDS011;21236;48.740;-3.446;2022-07-22T11:23:15;5.07;;;2.00;;
35048;SDS011;21236;48.740;-3.446;2022-07-22T11:25:42;8.57;;;2.05;;
35048;SDS011;21236;48.740;-3.446;2022-07-22T11:28:08;5.93;;;2.13;;
35048;SDS011;21236;48.740;-3.446;2022-07-22T11:30:34;7.55;;;2.17;;
35048;SDS011;21236;48.740;-3.446;2022-07-22T11:33:02;7.47;;;1.80;;
35048;SDS011;21236;48.740;-3.446;2022-07-22T11:35:28;7.97;;;1.98;;
35048;SDS011;21236;48.740;-3.446;2022-07-22T11:37:54;8.95;;;2.08;;
35048;SDS011;21236;48.740;-3.446;2022-07-22T11:40:20;11.40;;;2.42;;
35048;SDS011;21236;48.740;-3.446;2022-07-22T11:42:59;6.97;;;2.28;;
35048;SDS011;21236;48.740;-3.446;2022-07-22T11:45:25;6.03;;;2.20;;
35048;SDS011;21236;48.740;-3.446;2022-07-22T11:47:52;6.20;;;2.40;;
35048;SDS011;21236;48.740;-3.446;2022-07-22T11:50:28;6.35;;;2.70;;
35048;SDS011;21236;48.740;-3.446;2022-07-22T11:52:54;10.23;;;2.25;;
35048;SDS011;21236;48.740;-3.446;2022-07-22T11:55:20;5.78;;;1.90;;
35048;SDS011;21236;48.740;-3.446;2022-07-22T11:57:49;3.60;;;1.90;;
35048;SDS011;21236;48.740;-3.446;2022-07-22T12:00:16;9.00;;;2.20;;
35048;SDS011;21236;48.740;-3.446;2022-07-22T12:02:42;8.52;;;2.10;;
35048;SDS011;21236;48.740;-3.446;2022-07-22T12:05:09;5.10;;;2.15;;
35048;SDS011;21236;48.740;-3.446;2022-07-22T12:07:35;8.13;;;1.98;;
35048;SDS011;21236;48.740;-3.446;2022-07-22T12:10:01;7.25;;;2.22;;
35048;SDS011;21236;48.740;-3.446;2022-07-22T12:12:40;14.27;;;2.40;;
35048;SDS011;21236;48.740;-3.446;2022-07-22T12:15:06;7.70;;;1.70;;
35048;SDS011;21236;48.740;-3.446;2022-07-22T12:17:34;4.90;;;1.70;;
35048;SDS011;21236;48.740;-3.446;2022-07-22T12:20:09;6.45;;;1.92;;
35048;SDS011;21236;48.740;-3.446;2022-07-22T12:22:43;7.00;;;2.10;;
35048;SDS011;21236;48.740;-3.446;2022-07-22T12:25:10;4.32;;;1.90;;
35048;SDS011;21236;48.740;-3.446;2022-07-22T12:27:36;7.45;;;2.72;;
35048;SDS011;21236;48.740;-3.446;2022-07-22T12:30:11;7.15;;;2.22;;
35048;SDS011;21236;48.740;-3.446;2022-07-22T12:32:37;5.15;;;1.75;;
35048;SDS011;21236;48.740;-3.446;2022-07-22T12:35:13;5.57;;;2.08;;
35048;SDS011;21236;48.740;-3.446;2022-07-22T12:40:21;8.18;;;1.98;;
35048;SDS011;21236;48.740;-3.446;2022-07-22T12:45:27;8.63;;;2.20;;
35048;SDS011;21236;48.740;-3.446;2022-07-22T12:47:54;7.88;;;1.63;;
35048;SDS011;21236;48.740;-3.446;2022-07-22T12:50:29;12.32;;;2.47;;
35048;SDS011;21236;48.740;-3.446;2022-07-22T12:53:06;5.95;;;1.90;;
35048;SDS011;21236;48.740;-3.446;2022-07-22T12:55:33;7.82;;;1.67;;
35048;SDS011;21236;48.740;-3.446;2022-07-22T12:58:00;5.03;;;1.55;;
35048;SDS011;21236;48.740;-3.446;2022-07-22T13:00:27;9.77;;;2.25;;
35048;SDS011;21236;48.740;-3.446;2022-07-22T13:02:53;6.03;;;2.05;;
35048;SDS011;21236;48.740;-3.446;2022-07-22T13:05:20;7.32;;;2.22;;
35048;SDS011;21236;48.740;-3.446;2022-07-22T13:07:47;4.85;;;2.13;;
35048;SDS011;21236;48.740;-3.446;2022-07-22T13:10:13;6.00;;;2.45;;
35048;SDS011;21236;48.740;-3.446;2022-07-22T13:12:40;7.57;;;2.10;;
35048;SDS011;21236;48.740;-3.446;2022-07-22T13:15:06;8.27;;;2.05;;
35048;SDS011;21236;48.740;-3.446;2022-07-22T13:17:33;4.28;;;1.70;;
35048;SDS011;21236;48.740;-3.446;2022-07-22T13:19:59;3.13;;;1.65;;
35048;SDS011;21236;48.740;-3.446;2022-07-22T13:22:25;6.60;;;1.80;;
35048;SDS011;21236;48.740;-3.446;2022-07-22T13:24:51;4.25;;;1.60;;
35048;SDS011;21236;48.740;-3.446;2022-07-22T13:27:17;5.72;;;1.77;;
35048;SDS011;21236;48.740;-3.446;2022-07-22T13:29:43;8.15;;;2.38;;
35048;SDS011;21236;48.740;-3.446;2022-07-22T13:32:10;4.78;;;1.67;;
35048;SDS011;21236;48.740;-3.446;2022-07-22T13:34:36;4.50;;;1.90;;
35048;SDS011;21236;48.740;-3.446;2022-07-22T13:37:02;7.32;;;1.60;;
35048;SDS011;21236;48.740;-3.446;2022-07-22T13:39:28;5.72;;;1.60;;
35048;SDS011;21236;48.740;-3.446;2022-07-22T13:41:54;7.05;;;1.90;;
35048;SDS011;21236;48.740;-3.446;2022-07-22T13:44:20;9.15;;;1.85;;
35048;SDS011;21236;48.740;-3.446;2022-07-22T13:46:47;11.10;;;1.80;;
35048;SDS011;21236;48.740;-3.446;2022-07-22T13:49:14;6.18;;;1.90;;
35048;SDS011;21236;48.740;-3.446;2022-07-22T13:51:40;9.50;;;2.10;;
35048;SDS011;21236;48.740;-3.446;2022-07-22T13:54:06;6.93;;;1.75;;
35048;SDS011;21236;48.740;-3.446;2022-07-22T13:56:33;5.22;;;1.90;;
35048;SDS011;21236;48.740;-3.446;2022-07-22T13:58:59;8.77;;;2.03;;
35048;SDS011;21236;48.740;-3.446;2022-07-22T14:01:26;8.38;;;1.88;;
35048;SDS011;21236;48.740;-3.446;2022-07-22T14:03:52;7.07;;;1.83;;
35048;SDS011;21236;48.740;-3.446;2022-07-22T14:06:18;4.68;;;2.15;;
35048;SDS011;21236;48.740;-3.446;2022-07-22T14:08:44;5.45;;;2.20;;
35048;SDS011;21236;48.740;-3.446;2022-07-22T14:11:10;7.90;;;2.05;;
35048;SDS011;21236;48.740;-3.446;2022-07-22T14:13:36;9.70;;;2.28;;
35048;SDS011;21236;48.740;-3.446;2022-07-22T14:16:03;5.22;;;1.90;;
35048;SDS011;21236;48.740;-3.446;2022-07-22T14:18:47;8.00;;;2.05;;
35048;SDS011;21236;48.740;-3.446;2022-07-22T14:21:14;4.80;;;2.08;;
35048;SDS011;21236;48.740;-3.446;2022-07-22T14:23:40;5.43;;;1.85;;
35048;SDS011;21236;48.740;-3.446;2022-07-22T14:26:06;6.03;;;1.70;;
35048;SDS011;21236;48.740;-3.446;2022-07-22T14:28:32;12.45;;;2.15;;
35048;SDS011;21236;48.740;-3.446;2022-07-22T14:30:58;7.43;;;1.88;;
35048;SDS011;21236;48.740;-3.446;2022-07-22T14:33:24;7.00;;;1.90;;
35048;SDS011;21236;48.740;-3.446;2022-07-22T14:35:50;6.78;;;1.90;;
35048;SDS011;21236;48.740;-3.446;2022-07-22T14:38:16;5.20;;;1.98;;
35048;SDS011;21236;48.740;-3.446;2022-07-22T14:40:44;7.03;;;1.83;;
35048;SDS011;21236;48.740;-3.446;2022-07-22T14:43:10;7.07;;;1.98;;
35048;SDS011;21236;48.740;-3.446;2022-07-22T14:45:36;5.85;;;2.30;;
35048;SDS011;21236;48.740;-3.446;2022-07-22T14:48:02;6.38;;;2.08;;
35048;SDS011;21236;48.740;-3.446;2022-07-22T14:50:28;8.15;;;2.20;;
35048;SDS011;21236;48.740;-3.446;2022-07-22T14:52:54;6.45;;;2.00;;
35048;SDS011;21236;48.740;-3.446;2022-07-22T14:55:21;5.25;;;1.88;;
35048;SDS011;21236;48.740;-3.446;2022-07-22T14:57:47;4.30;;;1.75;;
35048;SDS011;21236;48.740;-3.446;2022-07-22T15:00:13;4.45;;;1.80;;
35048;SDS011;21236;48.740;-3.446;2022-07-22T15:02:40;9.60;;;2.05;;
35048;SDS011;21236;48.740;-3.446;2022-07-22T15:05:06;7.78;;;2.28;;